Time;durP1;ratioP1;P1;durP2;ratioP2;P2;SDS_P1;SDS_P2;PMS_P1;PMS_P2;Temp;Humidity;BMP_temperature;BMP_pressure;BME280_temperature;BME280_humidity;BME280_pressure;Samples;Min_cycle;Max_cycle;Signal;HPM_P1;HPM_P2
2023/06/04 20:11:54;;;;;;;7.70;4.80;;;18.00;61.40;;;;;;5163206;27;20895;-78
2023/06/04 20:14:22;;;;;;;8.80;4.53;;;17.80;61.50;;;;;;5128890;27;20205;-77
2023/06/04 20:16:50;;;;;;;8.30;4.77;;;17.70;61.60;;;;;;5130304;27;20632;-78
2023/06/04 20:19:18;;;;;;;6.83;4.90;;;17.60;62.40;;;;;;5129913;27;20208;-76
2023/06/04 20:21:47;;;;;;;6.53;4.50;;;17.60;62.10;;;;;;5130338;27;20270;-78
2023/06/04 20:24:15;;;;;;;7.80;4.50;;;17.60;63.00;;;;;;5120797;27;20240;-76
2023/06/04 20:26:46;;;;;;;7.97;4.50;;;17.60;63.70;;;;;;5108597;28;20285;-79
2023/06/04 20:29:15;;;;;;;5.90;4.30;;;17.50;64.40;;;;;;5107960;28;20206;-77
2023/06/04 20:31:43;;;;;;;6.47;4.27;;;17.50;65.90;;;;;;5118517;28;20282;-77
2023/06/04 20:34:13;;;;;;;5.93;4.30;;;17.40;68.60;;;;;;5108760;27;20616;-78
2023/06/04 20:36:41;;;;;;;8.73;4.70;;;17.40;68.40;;;;;;5108689;28;20683;-76
2023/06/04 20:39:09;;;;;;;8.23;4.63;;;17.30;69.00;;;;;;5108251;28;20206;-78
2023/06/04 20:41:37;;;;;;;7.33;4.43;;;17.30;69.40;;;;;;5118452;28;20672;-77
2023/06/04 20:44:05;;;;;;;8.10;4.70;;;17.20;70.10;;;;;;5128603;27;20258;-77
2023/06/04 20:46:35;;;;;;;6.30;4.90;;;17.20;70.40;;;;;;5129458;27;20252;-77
2023/06/04 20:49:03;;;;;;;7.40;4.47;;;17.20;71.00;;;;;;5129482;27;20682;-76
2023/06/04 20:51:31;;;;;;;7.70;4.70;;;17.20;71.70;;;;;;5112733;27;20234;-79
2023/06/04 20:53:59;;;;;;;7.10;4.40;;;17.10;72.30;;;;;;5118357;28;20628;-78
2023/06/04 20:56:28;;;;;;;7.10;4.57;;;17.10;72.90;;;;;;5120400;27;20202;-77
2023/06/04 20:58:56;;;;;;;5.97;4.60;;;17.10;73.20;;;;;;5127802;27;20727;-78
2023/06/04 21:01:24;;;;;;;7.93;4.70;;;17.10;73.60;;;;;;5108949;28;20732;-77
2023/06/04 21:03:53;;;;;;;6.97;4.47;;;17.10;72.80;;;;;;5108308;28;20460;-78
2023/06/04 21:06:22;;;;;;;5.73;4.30;;;17.10;74.30;;;;;;5108461;28;20721;-77
2023/06/04 21:08:50;;;;;;;6.27;4.30;;;17.10;73.70;;;;;;5108699;28;20210;-78
2023/06/04 21:11:18;;;;;;;7.73;4.37;;;17.00;74.20;;;;;;5108285;28;20226;-78
2023/06/04 21:13:46;;;;;;;8.80;3.93;;;17.00;74.00;;;;;;5108430;28;20256;-78
2023/06/04 21:16:14;;;;;;;8.17;4.23;;;16.90;74.30;;;;;;5108965;28;20218;-77
2023/06/04 21:18:42;;;;;;;5.57;4.20;;;17.00;75.30;;;;;;5108656;28;20508;-78
2023/06/04 21:21:12;;;;;;;6.90;4.10;;;16.90;75.70;;;;;;5106699;28;20202;-78
2023/06/04 21:23:40;;;;;;;5.90;3.70;;;16.90;76.40;;;;;;5105494;28;20210;-76
2023/06/04 21:26:08;;;;;;;5.73;3.97;;;16.90;77.50;;;;;;5117238;28;20633;-76
2023/06/04 21:28:36;;;;;;;7.10;4.53;;;16.80;78.80;;;;;;5117330;28;20263;-78
2023/06/04 21:31:04;;;;;;;6.07;4.30;;;16.80;79.40;;;;;;5104010;28;20254;-77
2023/06/04 21:33:33;;;;;;;5.23;4.03;;;16.80;80.00;;;;;;5096505;28;20225;-79
2023/06/04 21:36:01;;;;;;;8.03;4.57;;;16.70;81.30;;;;;;5097052;28;20218;-75
2023/06/04 21:38:30;;;;;;;8.07;4.50;;;16.70;82.50;;;;;;5095749;28;20249;-78
2023/06/04 21:40:58;;;;;;;6.63;4.33;;;16.80;82.60;;;;;;5095340;28;20199;-76
2023/06/04 21:43:26;;;;;;;6.20;4.50;;;16.90;83.40;;;;;;5093823;28;20672;-77
2023/06/04 21:45:55;;;;;;;8.33;4.63;;;17.00;83.10;;;;;;5094394;28;20249;-76
2023/06/04 21:48:23;;;;;;;8.43;4.40;;;17.00;83.00;;;;;;5093835;28;20297;-77
2023/06/04 21:50:51;;;;;;;6.03;4.50;;;17.00;84.30;;;;;;5094811;28;20248;-77
2023/06/04 21:53:20;;;;;;;6.40;4.57;;;17.00;83.80;;;;;;5098224;28;20251;-76
2023/06/04 21:55:50;;;;;;;7.20;4.37;;;17.00;85.20;;;;;;5106110;28;20202;-77
2023/06/04 21:58:19;;;;;;;8.57;4.20;;;17.00;85.60;;;;;;5106409;28;20264;-78
2023/06/04 22:00:47;;;;;;;7.13;4.10;;;17.00;86.60;;;;;;5095009;28;20661;-78
2023/06/04 22:03:16;;;;;;;5.63;4.30;;;17.00;87.40;;;;;;5107240;28;20217;-76
2023/06/04 22:05:44;;;;;;;6.87;4.77;;;16.90;89.60;;;;;;5115696;28;20728;-76
2023/06/04 22:08:13;;;;;;;7.00;4.80;;;16.90;90.30;;;;;;5103488;28;20242;-78
2023/06/04 22:10:41;;;;;;;8.10;5.03;;;16.80;90.80;;;;;;5095168;28;20703;-78
2023/06/04 22:13:11;;;;;;;5.97;4.43;;;16.80;91.70;;;;;;5095746;28;20211;-76
2023/06/04 22:15:39;;;;;;;6.93;4.03;;;16.80;92.50;;;;;;5101194;28;20210;-78
2023/06/04 22:18:07;;;;;;;9.97;4.73;;;16.70;93.30;;;;;;5115537;28;20214;-78
2023/06/04 22:20:35;;;;;;;5.83;4.70;;;16.70;93.90;;;;;;5116375;28;20663;-77
2023/06/04 22:23:03;;;;;;;6.10;4.63;;;16.70;95.20;;;;;;5116280;28;20673;-77
2023/06/04 22:25:31;;;;;;;6.73;5.27;;;16.70;96.10;;;;;;5101738;28;20207;-78
2023/06/04 22:27:59;;;;;;;5.73;4.60;;;16.70;96.90;;;;;;5095623;28;20233;-76
2023/06/04 22:30:29;;;;;;;8.17;5.27;;;16.60;97.70;;;;;;5100273;28;20198;-76
2023/06/04 22:32:57;;;;;;;7.43;4.83;;;16.60;98.40;;;;;;5103279;28;20230;-78
2023/06/04 22:35:26;;;;;;;6.83;4.50;;;16.60;98.70;;;;;;5093085;28;20286;-78
2023/06/04 22:37:54;;;;;;;8.43;4.90;;;16.60;99.20;;;;;;5093255;28;20772;-77
2023/06/04 22:40:22;;;;;;;9.27;5.10;;;16.60;99.90;;;;;;5096939;28;20232;-76
2023/06/04 22:42:51;;;;;;;7.37;4.97;;;16.60;99.90;;;;;;5115247;28;20245;-77
2023/06/04 22:45:19;;;;;;;9.63;4.83;;;16.60;99.90;;;;;;5116779;28;20618;-76
2023/06/04 22:47:48;;;;;;;7.03;5.20;;;16.60;99.90;;;;;;5111672;28;20242;-76
2023/06/04 22:50:17;;;;;;;8.70;5.60;;;16.60;99.90;;;;;;5111475;28;20222;-75
2023/06/04 22:52:45;;;;;;;8.50;5.50;;;16.60;99.90;;;;;;5111363;28;20236;-76
2023/06/04 22:55:13;;;;;;;6.77;5.27;;;16.60;99.90;;;;;;5113683;28;20198;-75
2023/06/04 22:57:43;;;;;;;7.70;5.57;;;16.70;99.90;;;;;;5113158;28;20206;-74
2023/06/04 23:00:12;;;;;;;8.00;5.67;;;16.70;99.90;;;;;;5110454;28;20622;-77
2023/06/04 23:02:40;;;;;;;7.83;5.73;;;16.70;99.90;;;;;;5111819;28;20205;-78
2023/06/04 23:05:10;;;;;;;7.80;5.70;;;16.70;99.90;;;;;;5112406;28;20210;-78
2023/06/04 23:07:38;;;;;;;8.00;5.37;;;16.70;99.90;;;;;;5101863;28;20691;-77
2023/06/04 23:10:07;;;;;;;7.87;5.87;;;16.60;99.90;;;;;;5101508;28;20317;-77
2023/06/04 23:12:35;;;;;;;7.40;5.70;;;16.70;99.90;;;;;;5113016;28;20221;-76
2023/06/04 23:15:04;;;;;;;7.83;5.80;;;16.60;99.90;;;;;;5112545;28;20210;-77
2023/06/04 23:17:32;;;;;;;8.07;5.77;;;16.60;99.90;;;;;;5099057;28;20237;-78
2023/06/04 23:20:00;;;;;;;8.10;5.57;;;16.60;99.90;;;;;;5093422;28;20264;-78
2023/06/04 23:22:30;;;;;;;10.27;6.30;;;16.50;99.90;;;;;;5092590;28;20206;-77
2023/06/04 23:24:58;;;;;;;9.63;5.63;;;16.50;99.90;;;;;;5092198;28;20250;-77
2023/06/04 23:27:27;;;;;;;9.97;6.30;;;16.50;99.90;;;;;;5112617;28;20581;-77
2023/06/04 23:29:56;;;;;;;6.67;5.80;;;16.50;99.90;;;;;;5113109;28;20214;-77
2023/06/04 23:32:24;;;;;;;11.73;6.57;;;16.50;99.90;;;;;;5108980;28;20314;-77
2023/06/04 23:34:52;;;;;;;6.97;6.03;;;16.50;99.90;;;;;;5105016;28;20207;-76
2023/06/04 23:37:20;;;;;;;6.70;6.00;;;16.50;99.90;;;;;;5112721;28;20217;-76
2023/06/04 23:39:50;;;;;;;7.57;5.87;;;16.50;99.90;;;;;;5112863;28;20213;-76
2023/06/04 23:42:19;;;;;;;9.17;5.90;;;16.40;99.90;;;;;;5105889;28;20202;-77
2023/06/04 23:44:47;;;;;;;6.53;5.50;;;16.40;99.90;;;;;;5092332;28;20284;-77
2023/06/04 23:47:15;;;;;;;6.57;5.60;;;16.30;99.90;;;;;;5100823;28;20234;-75
2023/06/04 23:49:44;;;;;;;7.50;5.73;;;16.20;99.90;;;;;;5099385;28;20207;-75
2023/06/04 23:52:12;;;;;;;9.77;5.90;;;16.20;99.90;;;;;;5103203;28;20585;-77
2023/06/04 23:54:40;;;;;;;6.97;5.77;;;16.20;99.90;;;;;;5112476;28;20732;-77
2023/06/04 23:57:10;;;;;;;6.03;5.40;;;16.10;99.90;;;;;;5112841;28;20210;-78
2023/06/04 23:59:38;;;;;;;7.83;5.83;;;16.10;99.90;;;;;;5102897;28;20302;-77
